createdAt,value
2019-04-03T00:00:42.914Z,14.00
2019-04-03T00:05:50.918Z,13.90
2019-04-03T00:08:19.445Z,13.80
2019-04-03T00:16:32.722Z,13.50
2019-04-03T00:24:46.300Z,13.50
2019-04-03T00:33:09.808Z,13.50
2019-04-03T00:35:44.238Z,13.60
2019-04-03T00:41:13.764Z,13.50
2019-04-03T00:46:32.057Z,13.60
2019-04-03T00:49:00.524Z,13.50
2019-04-03T00:51:28.960Z,13.40
2019-04-03T00:53:58.118Z,13.30
2019-04-03T01:00:02.073Z,13.20
2019-04-03T01:02:11.106Z,13.10
2019-04-03T01:04:40.964Z,13.00
2019-04-03T01:10:04.189Z,12.90
2019-04-03T01:12:32.702Z,12.90
2019-04-03T01:26:44.429Z,12.70
2019-04-03T01:35:01.325Z,12.70
2019-04-03T01:40:33.402Z,12.70
2019-04-03T01:43:01.854Z,12.60
2019-04-03T01:45:30.362Z,12.60
2019-04-03T01:47:58.812Z,12.60
2019-04-03T01:56:06.233Z,12.40
2019-04-03T01:58:46.922Z,12.40
2019-04-03T02:04:13.761Z,12.40
2019-04-03T02:06:43.733Z,12.40
2019-04-03T02:12:28.997Z,12.40
2019-04-03T02:14:53.193Z,12.30
2019-04-03T02:20:18.540Z,12.20
2019-04-03T02:23:01.375Z,12.20
2019-04-03T02:25:32.154Z,12.20
2019-04-03T02:34:02.274Z,12.20
2019-04-03T02:36:31.393Z,12.20
2019-04-03T02:39:02.857Z,12.20
2019-04-03T02:41:36.809Z,12.10
2019-04-03T02:47:01.571Z,12.20
2019-04-03T02:52:28.805Z,12.30
2019-04-03T02:54:58.833Z,12.30
2019-04-03T02:57:27.518Z,12.30
2019-04-03T03:02:53.109Z,12.30
2019-04-03T03:08:14.787Z,12.20
2019-04-03T03:13:44.891Z,12.10
2019-04-03T03:16:14.527Z,12.10
2019-04-03T03:18:51.389Z,12.00
2019-04-03T03:21:51.411Z,11.90
2019-04-03T03:30:30.584Z,11.70
2019-04-03T03:32:41.057Z,11.70
2019-04-03T03:35:15.681Z,11.70
2019-04-03T03:37:40.898Z,11.70
2019-04-03T03:40:09.520Z,11.60
2019-04-03T03:42:38.170Z,11.60
2019-04-03T03:45:08.065Z,11.60
2019-04-03T03:47:37.871Z,11.60
2019-04-03T03:50:09.634Z,11.50
2019-04-03T03:52:39.231Z,11.50
2019-04-03T03:55:08.715Z,11.50
2019-04-03T03:57:40.415Z,11.50
2019-04-03T04:00:10.154Z,11.50
2019-04-03T04:02:43.256Z,11.40
2019-04-03T04:05:11.550Z,11.40
2019-04-03T04:07:40.320Z,11.40
2019-04-03T04:10:09.690Z,11.40
2019-04-03T04:12:41.192Z,11.30
2019-04-03T04:15:09.163Z,11.30
2019-04-03T04:17:37.586Z,11.30
2019-04-03T04:20:07.446Z,11.40
2019-04-03T04:22:37.319Z,11.40
2019-04-03T04:25:07.033Z,11.50
2019-04-03T04:27:38.552Z,11.50
2019-04-03T04:30:06.613Z,11.50
2019-04-03T04:32:35.500Z,11.40
2019-04-03T04:35:05.818Z,11.30
2019-04-03T04:37:34.395Z,11.20
2019-04-03T04:40:02.860Z,11.20
2019-04-03T04:42:31.465Z,11.20
2019-04-03T04:45:01.611Z,11.30
2019-04-03T04:47:30.144Z,11.50
2019-04-03T04:49:58.751Z,11.60
2019-04-03T04:52:27.601Z,11.60
2019-04-03T04:54:56.676Z,11.60
2019-04-03T04:57:25.107Z,11.60
2019-04-03T04:59:53.647Z,11.60
2019-04-03T05:02:23.565Z,11.60
2019-04-03T05:04:52.120Z,11.60
2019-04-03T05:07:22.097Z,11.60
2019-04-03T05:09:50.541Z,11.60
2019-04-03T05:12:18.952Z,11.60
2019-04-03T05:14:48.944Z,11.60
2019-04-03T05:17:17.606Z,11.60
2019-04-03T05:19:48.278Z,11.60
2019-04-03T05:22:16.404Z,11.60
2019-04-03T05:24:44.842Z,11.60
2019-04-03T05:27:13.255Z,11.60
2019-04-03T05:29:41.839Z,11.60
2019-04-03T05:32:10.820Z,11.60
2019-04-03T05:34:39.431Z,11.60
2019-04-03T05:37:10.730Z,11.50
2019-04-03T05:39:38.018Z,11.50
2019-04-03T05:42:06.767Z,11.40
2019-04-03T05:44:35.582Z,11.40
2019-04-03T05:47:04.271Z,11.40
2019-04-03T05:49:32.899Z,11.40
2019-04-03T05:52:03.434Z,11.40
2019-04-03T05:54:31.710Z,11.40
2019-04-03T05:57:00.161Z,11.30
2019-04-03T05:59:28.598Z,11.30
2019-04-03T06:01:57.024Z,11.30
2019-04-03T06:04:25.670Z,11.20
2019-04-03T06:06:54.238Z,11.20
2019-04-03T06:09:23.229Z,11.10
2019-04-03T06:11:52.321Z,11.10
2019-04-03T06:14:23.192Z,11.10
2019-04-03T06:16:51.555Z,11.10
2019-04-03T06:19:20.001Z,11.10
2019-04-03T06:21:48.450Z,11.10
2019-04-03T06:24:18.003Z,11.00
2019-04-03T06:26:47.011Z,11.20
2019-04-03T06:29:18.425Z,11.20
2019-04-03T06:31:45.979Z,11.20
2019-04-03T06:34:14.378Z,11.20
2019-04-03T06:36:42.812Z,11.20
2019-04-03T06:39:11.233Z,11.20
2019-04-03T06:41:41.637Z,11.20
2019-04-03T06:44:09.806Z,11.20
2019-04-03T06:46:38.252Z,11.10
2019-04-03T06:49:08.515Z,11.00
2019-04-03T06:51:37.642Z,11.10
2019-04-03T06:54:08.069Z,11.00
2019-04-03T06:56:38.350Z,11.00
2019-04-03T06:59:07.283Z,11.00
2019-04-03T07:01:35.709Z,11.00
2019-04-03T07:04:05.849Z,11.00
2019-04-03T07:06:34.435Z,10.90
2019-04-03T07:09:05.234Z,10.80
2019-04-03T07:11:33.905Z,10.80
2019-04-03T07:14:02.638Z,10.70
2019-04-03T07:16:31.371Z,10.80
2019-04-03T07:19:00.343Z,10.80
2019-04-03T07:21:28.904Z,10.70
2019-04-03T07:24:00.390Z,10.60
2019-04-03T07:26:27.953Z,10.50
2019-04-03T07:28:56.763Z,10.60
2019-04-03T07:31:25.774Z,10.70
2019-04-03T07:33:57.407Z,10.80
2019-04-03T07:36:24.937Z,10.80
2019-04-03T07:38:53.391Z,10.80
2019-04-03T07:41:23.373Z,10.80
2019-04-03T07:43:52.559Z,10.80
2019-04-03T07:46:21.451Z,10.80
2019-04-03T07:48:49.902Z,10.60
2019-04-03T07:51:18.336Z,10.40
2019-04-03T07:53:46.820Z,10.30
2019-04-03T07:56:15.468Z,10.40
2019-04-03T07:58:43.950Z,10.50
2019-04-03T08:01:13.001Z,10.50
2019-04-03T08:03:41.599Z,10.50
2019-04-03T08:06:10.448Z,10.50
2019-04-03T08:08:39.507Z,10.50
2019-04-03T08:11:08.056Z,10.70
2019-04-03T08:13:38.178Z,10.70
2019-04-03T08:16:06.693Z,10.70
2019-04-03T08:18:35.112Z,10.80
2019-04-03T08:21:03.589Z,10.80
2019-04-03T08:23:32.182Z,10.60
2019-04-03T08:26:02.254Z,10.60
2019-04-03T08:28:30.836Z,10.60
2019-04-03T08:30:59.461Z,10.60
2019-04-03T08:33:28.273Z,10.60
2019-04-03T08:35:56.781Z,10.60
2019-04-03T08:38:25.372Z,10.50
2019-04-03T08:40:53.925Z,10.50
2019-04-03T08:43:23.265Z,10.50
2019-04-03T08:45:51.813Z,10.50
2019-04-03T08:48:20.229Z,10.70
2019-04-03T08:50:48.673Z,10.80
2019-04-03T08:53:17.144Z,10.90
2019-04-03T08:55:46.496Z,10.90
2019-04-03T08:58:15.326Z,11.00
2019-04-03T09:00:44.083Z,11.20
2019-04-03T09:03:14.658Z,11.40
2019-04-03T09:05:43.123Z,11.60
2019-04-03T09:08:11.665Z,11.60
2019-04-03T09:10:40.213Z,11.60
2019-04-03T09:13:17.043Z,11.60
2019-04-03T09:15:39.039Z,11.70
2019-04-03T09:18:07.788Z,11.70
2019-04-03T09:20:36.262Z,11.90
2019-04-03T09:23:04.688Z,12.00
2019-04-03T09:25:33.111Z,12.10
2019-04-03T09:28:01.845Z,12.10
2019-04-03T09:30:31.485Z,12.00
2019-04-03T09:33:00.514Z,11.90
2019-04-03T09:35:32.184Z,11.70
2019-04-03T09:38:02.315Z,11.60
2019-04-03T09:43:35.298Z,11.30
2019-04-03T09:46:03.791Z,11.20
2019-04-03T09:48:32.253Z,11.10
2019-04-03T09:51:01.016Z,11.00
2019-04-03T09:53:30.478Z,10.80
2019-04-03T09:55:59.107Z,10.90
2019-04-03T09:58:27.563Z,11.00
2019-04-03T10:00:57.497Z,11.00
2019-04-03T10:03:30.677Z,11.00
2019-04-03T10:08:56.257Z,10.60
2019-04-03T10:11:26.184Z,10.30
2019-04-03T10:13:57.758Z,10.10
2019-04-03T10:16:27.764Z,9.90
2019-04-03T10:18:56.270Z,9.80
2019-04-03T10:21:24.732Z,9.90
2019-04-03T10:26:41.650Z,9.80
2019-04-03T10:29:12.071Z,9.70
2019-04-03T10:31:40.620Z,9.50
2019-04-03T10:34:13.345Z,9.30
2019-04-03T10:36:43.542Z,9.20
2019-04-03T10:39:15.934Z,9.40
2019-04-03T10:41:44.942Z,9.30
2019-04-03T10:44:15.530Z,9.40
2019-04-03T10:46:44.472Z,9.40
2019-04-03T10:49:13.021Z,9.40
2019-04-03T10:51:42.038Z,9.40
2019-04-03T10:54:10.954Z,9.40
2019-04-03T10:56:41.229Z,9.20
2019-04-03T10:59:13.088Z,9.20
2019-04-03T11:01:40.073Z,9.20
2019-04-03T11:04:08.844Z,9.20
2019-04-03T11:06:37.855Z,9.20
2019-04-03T11:09:08.297Z,9.20
2019-04-03T11:11:37.645Z,9.30
2019-04-03T11:14:07.795Z,9.40
2019-04-03T11:16:38.673Z,9.50
2019-04-03T11:19:07.501Z,9.60
2019-04-03T11:21:36.133Z,9.70
2019-04-03T11:24:06.622Z,9.70
2019-04-03T11:26:35.051Z,9.70
2019-04-03T11:29:21.424Z,9.60
2019-04-03T11:31:50.632Z,9.70
2019-04-03T11:34:19.301Z,9.70
2019-04-03T11:36:54.044Z,9.70
2019-04-03T11:42:25.201Z,9.80
2019-04-03T11:47:51.802Z,9.90
2019-04-03T11:50:46.752Z,9.90
2019-04-03T11:53:14.871Z,9.90
2019-04-03T11:55:43.324Z,9.80
2019-04-03T11:58:11.877Z,9.90
2019-04-03T12:03:36.789Z,10.00
2019-04-03T12:09:13.286Z,10.10
2019-04-03T12:11:41.569Z,10.20
2019-04-03T12:14:13.098Z,10.20
2019-04-03T12:16:41.606Z,10.20
2019-04-03T12:19:30.671Z,10.10
2019-04-03T12:22:00.916Z,10.00
2019-04-03T12:24:29.629Z,9.80
2019-04-03T12:29:56.173Z,9.80
2019-04-03T12:32:37.041Z,9.90
2019-04-03T12:35:01.097Z,10.00
2019-04-03T12:37:40.644Z,10.20
2019-04-03T12:43:06.574Z,9.90
2019-04-03T12:45:44.690Z,9.80
2019-04-03T12:48:18.455Z,9.90
2019-04-03T12:50:46.868Z,10.00
2019-04-03T12:53:19.615Z,10.10
2019-04-03T12:55:50.188Z,10.20
2019-04-03T12:58:21.138Z,10.10
2019-04-03T13:03:25.747Z,9.80
2019-04-03T13:06:00.301Z,9.70
2019-04-03T13:11:23.328Z,9.70
2019-04-03T13:13:51.978Z,9.70
2019-04-03T13:22:27.629Z,10.00
2019-04-03T13:24:57.872Z,10.00
2019-04-03T13:27:26.694Z,9.80
2019-04-03T13:29:58.432Z,9.60
2019-04-03T13:32:34.066Z,9.50
2019-04-03T13:35:16.709Z,9.40
2019-04-03T13:37:54.375Z,9.50
2019-04-03T13:40:33.237Z,9.60
2019-04-03T13:45:58.118Z,9.70
2019-04-03T13:48:40.377Z,9.60
2019-04-03T13:57:17.252Z,9.30
2019-04-03T14:02:23.402Z,9.30
2019-04-03T14:04:52.381Z,9.30
2019-04-03T14:07:30.054Z,9.30
2019-04-03T14:10:13.070Z,9.20
2019-04-03T14:15:35.044Z,8.90
2019-04-03T14:18:07.895Z,8.80
2019-04-03T14:20:36.611Z,8.70
2019-04-03T14:23:08.016Z,8.70
2019-04-03T14:25:38.558Z,8.70
2019-04-03T14:28:06.957Z,8.70
2019-04-03T14:30:37.223Z,8.70
2019-04-03T14:33:18.930Z,8.60
2019-04-03T14:35:52.635Z,8.50
2019-04-03T14:38:42.169Z,8.50
2019-04-03T14:40:54.002Z,8.50
2019-04-03T14:46:18.037Z,8.60
2019-04-03T14:48:51.093Z,8.50
2019-04-03T14:51:21.657Z,8.50
2019-04-03T14:56:51.447Z,8.50
2019-04-03T15:02:21.409Z,8.40
2019-04-03T15:10:51.143Z,8.20
2019-04-03T15:19:17.960Z,7.90
2019-04-03T15:24:49.747Z,8.00
2019-04-03T15:27:18.235Z,7.90
2019-04-03T15:29:46.669Z,7.70
2019-04-03T15:32:17.649Z,7.50
2019-04-03T15:34:45.325Z,7.40
2019-04-03T15:37:14.714Z,7.30
2019-04-03T15:39:43.713Z,7.30
2019-04-03T15:42:13.129Z,7.20
2019-04-03T15:44:44.352Z,7.00
2019-04-03T15:47:13.325Z,7.00
2019-04-03T15:49:41.997Z,6.90
2019-04-03T15:52:12.901Z,6.80
2019-04-03T15:54:41.320Z,6.90
2019-04-03T15:57:10.012Z,6.80
2019-04-03T15:59:38.709Z,6.90
2019-04-03T16:02:07.244Z,6.90
2019-04-03T16:04:38.488Z,6.80
2019-04-03T16:07:08.086Z,6.80
2019-04-03T16:09:37.302Z,6.90
2019-04-03T16:12:07.090Z,6.90
2019-04-03T16:14:35.729Z,6.90
2019-04-03T16:17:04.502Z,6.90
2019-04-03T16:19:33.075Z,6.80
2019-04-03T16:22:02.270Z,6.70
2019-04-03T16:24:31.323Z,6.70
2019-04-03T16:27:00.602Z,6.80
2019-04-03T16:29:30.826Z,6.90
2019-04-03T16:32:01.861Z,6.80
2019-04-03T16:34:30.380Z,6.70
2019-04-03T16:36:58.815Z,7.00
2019-04-03T16:39:27.875Z,6.90
2019-04-03T16:41:56.452Z,6.90
2019-04-03T16:44:26.310Z,6.90
2019-04-03T16:46:55.743Z,6.90
2019-04-03T16:49:24.181Z,6.90
2019-04-03T16:51:52.917Z,6.80
2019-04-03T16:54:21.393Z,6.70
2019-04-03T16:56:52.133Z,6.70
2019-04-03T16:59:20.662Z,6.70
2019-04-03T17:01:49.426Z,6.70
2019-04-03T17:04:26.501Z,6.60
2019-04-03T17:06:49.938Z,6.70
2019-04-03T17:09:18.539Z,6.70
2019-04-03T17:11:48.840Z,6.70
2019-04-03T17:14:17.571Z,6.60
2019-04-03T17:16:47.031Z,6.50
2019-04-03T17:19:15.793Z,6.40
2019-04-03T17:21:46.231Z,6.40
2019-04-03T17:24:17.372Z,6.50
2019-04-03T17:26:51.304Z,6.60
2019-04-03T17:29:15.652Z,6.70
2019-04-03T17:31:44.213Z,6.80
2019-04-03T17:34:12.704Z,6.80
2019-04-03T17:36:42.029Z,6.80
2019-04-03T17:39:10.440Z,6.90
2019-04-03T17:41:40.795Z,6.70
2019-04-03T17:44:09.793Z,6.60
2019-04-03T17:46:40.076Z,6.60
2019-04-03T17:49:08.888Z,6.60
2019-04-03T17:51:37.554Z,6.50
2019-04-03T17:54:07.773Z,6.40
2019-04-03T17:56:38.662Z,6.30
2019-04-03T17:59:07.164Z,6.20
2019-04-03T18:01:36.768Z,6.30
2019-04-03T18:04:05.497Z,6.30
2019-04-03T18:06:36.862Z,6.30
2019-04-03T18:09:10.769Z,6.30
2019-04-03T18:11:39.329Z,6.30
2019-04-03T18:14:07.782Z,6.20
2019-04-03T18:16:36.222Z,6.10
2019-04-03T18:19:05.401Z,6.20
2019-04-03T18:21:35.571Z,6.20
2019-04-03T18:24:04.246Z,6.10
2019-04-03T18:26:34.064Z,6.10
2019-04-03T18:29:06.468Z,6.20
2019-04-03T18:31:34.464Z,6.20
2019-04-03T18:34:02.902Z,6.20
2019-04-03T18:36:31.406Z,6.10
2019-04-03T18:38:59.933Z,6.00
2019-04-03T18:41:28.416Z,6.00
2019-04-03T18:43:56.853Z,6.20
2019-04-03T18:46:32.289Z,6.30
2019-04-03T18:49:01.002Z,6.30
2019-04-03T18:51:28.798Z,6.40
2019-04-03T18:53:57.226Z,6.40
2019-04-03T18:56:25.655Z,6.60
2019-04-03T18:58:56.839Z,6.60
2019-04-03T19:01:25.367Z,6.60
2019-04-03T19:03:53.813Z,6.60
2019-04-03T19:06:22.397Z,6.60
2019-04-03T19:08:50.874Z,6.60
2019-04-03T19:11:19.466Z,6.60
2019-04-03T19:13:49.469Z,6.60
2019-04-03T19:16:29.450Z,6.60
2019-04-03T19:18:51.461Z,6.60
2019-04-03T19:21:24.738Z,6.40
2019-04-03T19:23:51.977Z,6.40
2019-04-03T19:26:20.306Z,6.40
2019-04-03T19:28:48.717Z,6.40
2019-04-03T19:31:17.179Z,6.50
2019-04-03T19:33:45.789Z,6.50
2019-04-03T19:36:14.312Z,6.50
2019-04-03T19:38:42.731Z,6.40
2019-04-03T19:41:11.823Z,6.40
2019-04-03T19:43:40.860Z,6.30
2019-04-03T19:46:10.856Z,6.40
2019-04-03T19:48:39.279Z,6.40
2019-04-03T19:51:07.687Z,6.30
2019-04-03T19:53:36.181Z,6.10
2019-04-03T19:56:04.691Z,6.00
2019-04-03T19:58:35.965Z,6.00
2019-04-03T20:01:08.158Z,6.10
2019-04-03T20:03:36.859Z,6.30
2019-04-03T20:06:08.308Z,6.40
2019-04-03T20:08:36.723Z,6.40
2019-04-03T20:11:05.751Z,6.30
2019-04-03T20:13:34.276Z,6.30
2019-04-03T20:16:02.690Z,6.30
2019-04-03T20:18:32.788Z,6.20
2019-04-03T20:21:01.992Z,6.20
2019-04-03T20:23:31.376Z,6.30
2019-04-03T20:26:01.347Z,6.40
2019-04-03T20:28:31.490Z,6.30
2019-04-03T20:31:03.804Z,6.40
2019-04-03T20:33:33.535Z,6.40
2019-04-03T20:36:06.340Z,6.30
2019-04-03T20:38:40.254Z,6.20
2019-04-03T20:41:12.240Z,6.10
2019-04-03T20:43:47.136Z,6.00
2019-04-03T20:46:15.151Z,6.20
2019-04-03T20:48:43.591Z,6.30
2019-04-03T20:51:12.109Z,6.40
2019-04-03T20:53:40.561Z,6.40
2019-04-03T20:56:11.752Z,6.40
2019-04-03T20:58:40.880Z,6.40
2019-04-03T21:01:09.559Z,6.40
2019-04-03T21:03:37.960Z,6.30
2019-04-03T21:06:06.420Z,6.10
2019-04-03T21:08:37.827Z,5.80
2019-04-03T21:11:07.861Z,5.70
2019-04-03T21:13:39.399Z,5.80
2019-04-03T21:16:09.732Z,6.00
2019-04-03T21:18:40.993Z,6.10
2019-04-03T21:21:09.498Z,6.00
2019-04-03T21:23:37.909Z,5.80
2019-04-03T21:26:07.354Z,5.90
2019-04-03T21:28:35.924Z,5.90
2019-04-03T21:31:04.418Z,5.70
2019-04-03T21:33:32.834Z,5.70
2019-04-03T21:36:01.276Z,5.60
2019-04-03T21:38:29.688Z,5.60
2019-04-03T21:40:59.927Z,5.70
2019-04-03T21:43:29.239Z,5.90
2019-04-03T21:45:58.249Z,6.10
2019-04-03T21:48:26.660Z,6.00
2019-04-03T21:50:55.125Z,5.80
2019-04-03T21:53:28.949Z,5.70
2019-04-03T21:55:57.393Z,5.70
2019-04-03T21:58:25.817Z,5.60
2019-04-03T22:01:00.092Z,5.60
2019-04-03T22:03:31.394Z,5.60
2019-04-03T22:05:59.868Z,5.60
2019-04-03T22:08:29.044Z,5.70
2019-04-03T22:10:58.233Z,5.90
2019-04-03T22:13:29.369Z,6.10
2019-04-03T22:15:57.844Z,6.20
2019-04-03T22:18:26.269Z,6.20
2019-04-03T22:20:54.692Z,6.10
2019-04-03T22:23:23.126Z,6.00
2019-04-03T22:25:55.314Z,6.00
2019-04-03T22:28:24.657Z,6.00
2019-04-03T22:30:53.070Z,5.90
2019-04-03T22:33:21.573Z,6.00
2019-04-03T22:35:52.682Z,6.00
2019-04-03T22:38:24.789Z,5.80
2019-04-03T22:40:53.181Z,5.60
2019-04-03T22:43:23.149Z,5.70
2019-04-03T22:45:51.556Z,5.80
2019-04-03T22:48:20.008Z,5.80
2019-04-03T22:50:48.425Z,5.80
2019-04-03T22:53:16.909Z,5.80
2019-04-03T22:55:47.068Z,5.80
2019-04-03T22:58:15.642Z,5.80
2019-04-03T23:00:44.058Z,5.80
2019-04-03T23:03:13.413Z,5.70
2019-04-03T23:05:48.524Z,5.80
2019-04-03T23:08:22.690Z,5.90
2019-04-03T23:10:51.224Z,6.00
2019-04-03T23:13:19.690Z,5.90
2019-04-03T23:15:49.738Z,5.80
2019-04-03T23:18:21.179Z,5.80
2019-04-03T23:20:52.541Z,5.70
2019-04-03T23:23:27.083Z,5.70
2019-04-03T23:25:53.738Z,5.80
2019-04-03T23:28:22.166Z,5.90
2019-04-03T23:30:52.437Z,5.70
2019-04-03T23:33:20.937Z,5.60
2019-04-03T23:35:51.158Z,5.50
2019-04-03T23:38:19.601Z,5.50
2019-04-03T23:40:50.869Z,5.40
2019-04-03T23:43:20.104Z,5.40
2019-04-03T23:45:48.513Z,5.40
2019-04-03T23:48:18.535Z,5.50
2019-04-03T23:50:52.355Z,5.60
2019-04-03T23:53:21.447Z,5.90
2019-04-03T23:55:52.204Z,5.90
2019-04-03T23:58:20.076Z,5.90
